Cambridge Bay Airport
CYCB : now visible

Aeroporto :











RITROVATECI SU...

 
LOGIN :

Iscrizione | Disclaimer

   EN    FR    IT 

 









Sommario :    VFR   VFR Marginale   IFR   IFR Intensivo   IFR Molto Intensivo
Visibilità : 
Base nubi : 
>= 8 km
>= 3000ft
5 / 8 km
1000 / 3000 ft
1500m / 5 km
500 / 1000 ft
800 / 1500m
200 / 500 ft
< 800m
< 200 ft
Simboli :   Temporali  Nebbia  Neve Forte  Precipitazioni Forti  Vento > 20 kt






- Altitudine del aeroporto : 90 ft
- Codice IATA : YCB


CYCB - Cambridge Bay

ULTIMO METAR :
  • 180314Z 27025KT 5/8SM -SN BLSN OVC015 M23/M27 A3026 RMK BLSN2SC6 VIS VRB 3/8 - 1 SLP255

METARs OBSOLETI :
  • 180300Z 27026KT 1SM -SN BLSN OVC015 M23/M27 A3026 RMK BLSN1SC7 VIS VRB 1/2 - 1 1/2 SLP253
  • 180200Z 26024KT 1SM -SN BLSN OVC015 M25/M28 A3028 RMK BLSN1SC7 VIS VRB 1/2 - 1 1/2 SLP261
  • 180100Z 26024KT 1SM -SN BLSN OVC015 M26/M29 A3030 RMK BLSN1SC7 VIS VRB 1/2 - 1 1/2 SLP269

TAF TAF CYCB
Valido dal 18 a 01 ore il 18 a 13 ore UTC


180038Z 1801/1813 27025G35KT 1SM -SN BLSN SCT010 OVC025
TEMPO 1801/1813 1/2SM -SN BLSN VV006
BECMG 1807/1809 27030G40KT RMK NXT FCST BY 180700Z



MetMap, La meteo Aeronautica in un colpo d'occhio ! - Copyright ORBIFLY Dicembre 2007 - Disclaimer

ORBIFLY MET'MAP TEAM :

Programmazione e sviluppo : Alexandra Zaïnal
Concezione : Baudouin d'Aumeries
Aiuto per la programmazione : Marc-Olivier Méhu
Supporto tecnico e logistico : Manuel Goepfert
Aiuto per la traduzione : Arnaldo La Scala

Contatto : metmap@orbifly.com




FONTI E CREDITI :

   NOAA       Earth
Advisory